TAF Text Data
IDs:
Format:
Raw Decoded Include METAR

Data at: 0627 UTC 28 Sep 2022

METAR for:KMSP (Minneapolis-St Paul, MN, US)
Text:KMSP 280553Z 00000KT 10SM CLR 06/02 A3042 RMK AO2 SLP306 T00560022 10122 20056 401560056 51014
Temperature: 5.6°C ( 42°F)
Dewpoint: 2.2°C ( 36°F) [RH = 79%]
Pressure (altimeter):30.42 inches Hg (1030.2 mb) [Sea level pressure: 1030.6 mb]
Winds:calm
Visibility:10 or more sm (16+ km)
Ceiling:at least 12,000 feet AGL
Clouds:sky clear below 12,000 feet AGL

TAF for:KMSP (Minneapolis-St Paul, MN, US) issued at 0520 UTC 28 Sep 2022
Text:KMSP 280520Z 2806/2912 VRB03KT P6SM SKC
Forecast period:0600 to 1600 UTC 28 September 2022
Forecast type:FROM: standard forecast or significant change
Winds:variable direction winds at 3 MPH (3 knots; 1.5 m/s)
Visibility:6 or more sm (10+ km)
Ceiling:at least 12,000 feet AGL
Clouds:clear skies
Text:FM281600 15008KT P6SM SKC
Forecast period:1600 UTC 28 September 2022 to 1200 UTC 29 September 2022
Forecast type:FROM: standard forecast or significant change
Winds:from the SSE (150 degrees) at 9 MPH (8 knots; 4.1 m/s)
Visibility:6 or more sm (10+ km)
Ceiling:at least 12,000 feet AGL
Clouds:clear skies